createdAt,value
2019-04-25T00:00:27.182Z,17.39
2019-04-25T00:02:53.520Z,17.38
2019-04-25T00:05:21.173Z,17.38
2019-04-25T00:07:47.106Z,17.37
2019-04-25T00:10:13.754Z,17.35
2019-04-25T00:12:39.429Z,17.36
2019-04-25T00:15:05.131Z,17.34
2019-04-25T00:17:31.605Z,17.34
2019-04-25T00:19:57.777Z,17.33
2019-04-25T00:22:24.076Z,17.33
2019-04-25T00:24:51.605Z,17.31
2019-04-25T00:27:16.705Z,17.29
2019-04-25T00:29:43.912Z,17.29
2019-04-25T00:32:09.360Z,17.28
2019-04-25T00:34:35.656Z,17.27
2019-04-25T00:37:02.489Z,17.26
2019-04-25T00:39:28.310Z,17.25
2019-04-25T00:41:54.645Z,17.22
2019-04-25T00:44:21.954Z,17.22
2019-04-25T00:46:49.053Z,17.19
2019-04-25T00:49:13.630Z,17.19
2019-04-25T00:51:39.933Z,17.18
2019-04-25T00:54:06.258Z,17.17
2019-04-25T00:56:32.567Z,17.14
2019-04-25T00:58:58.877Z,17.13
2019-04-25T01:01:25.232Z,17.14
2019-04-25T01:03:53.312Z,17.13
2019-04-25T01:06:17.872Z,17.11
2019-04-25T01:08:44.247Z,17.09
2019-04-25T01:11:11.485Z,17.08
2019-04-25T01:13:36.846Z,17.07
2019-04-25T01:16:04.061Z,17.05
2019-04-25T01:18:29.484Z,17.03
2019-04-25T01:20:55.789Z,17.01
2019-04-25T01:23:23.658Z,16.99
2019-04-25T01:25:48.425Z,17.00
2019-04-25T01:28:14.758Z,16.98
2019-04-25T01:30:41.088Z,16.95
2019-04-25T01:33:07.396Z,16.95
2019-04-25T01:35:33.747Z,16.93
2019-04-25T01:38:00.052Z,16.93
2019-04-25T01:40:26.392Z,16.90
2019-04-25T01:42:53.914Z,16.91
2019-04-25T01:45:19.018Z,16.91
2019-04-25T01:47:45.539Z,16.89
2019-04-25T01:50:11.674Z,16.88
2019-04-25T01:52:38.000Z,16.87
2019-04-25T01:55:05.547Z,16.83
2019-04-25T01:57:30.639Z,16.84
2019-04-25T01:59:57.517Z,16.81
2019-04-25T02:02:23.599Z,16.81
2019-04-25T02:04:49.574Z,16.80
2019-04-25T02:07:15.913Z,16.80
2019-04-25T02:09:43.560Z,16.79
2019-04-25T02:12:08.559Z,16.78
2019-04-25T02:14:34.888Z,16.73
2019-04-25T02:17:01.212Z,16.74
2019-04-25T02:19:27.518Z,16.74
2019-04-25T02:21:54.539Z,16.73
2019-04-25T02:24:20.154Z,16.74
2019-04-25T02:26:46.469Z,16.74
2019-04-25T02:29:13.686Z,16.73
2019-04-25T02:31:39.110Z,16.70
2019-04-25T02:34:08.434Z,16.70
2019-04-25T02:36:34.431Z,16.69
2019-04-25T02:39:01.239Z,16.68
2019-04-25T02:41:25.040Z,16.67
2019-04-25T02:43:50.712Z,16.65
2019-04-25T02:46:17.039Z,16.64
2019-04-25T02:48:44.167Z,16.62
2019-04-25T02:51:09.672Z,16.62
2019-04-25T02:53:37.349Z,16.60
2019-04-25T02:56:04.978Z,16.58
2019-04-25T02:58:28.649Z,16.56
2019-04-25T03:01:03.349Z,16.56
2019-04-25T03:03:21.295Z,16.53
2019-04-25T03:05:47.995Z,16.53
2019-04-25T03:08:14.372Z,16.52
2019-04-25T03:10:40.270Z,16.51
2019-04-25T03:13:10.312Z,16.49
2019-04-25T03:15:34.177Z,16.49
2019-04-25T03:17:59.879Z,16.49
2019-04-25T03:20:25.544Z,16.48
2019-04-25T03:22:54.470Z,16.48
2019-04-25T03:25:18.154Z,16.47
2019-04-25T03:27:44.495Z,16.46
2019-04-25T03:30:13.628Z,16.43
2019-04-25T03:32:37.128Z,16.43
2019-04-25T03:35:04.950Z,16.42
2019-04-25T03:37:29.772Z,16.43
2019-04-25T03:39:56.101Z,16.42
2019-04-25T03:42:23.972Z,16.41
2019-04-25T03:44:48.715Z,16.40
2019-04-25T03:47:15.057Z,16.38
2019-04-25T03:49:41.363Z,16.36
2019-04-25T03:52:07.960Z,16.36
2019-04-25T03:54:34.031Z,16.34
2019-04-25T03:57:00.374Z,16.34
2019-04-25T03:59:26.692Z,16.34
2019-04-25T04:01:53.782Z,16.35
2019-04-25T04:04:19.554Z,16.33
2019-04-25T04:06:45.856Z,16.34
2019-04-25T04:09:13.925Z,16.34
2019-04-25T04:11:38.514Z,16.34
2019-04-25T04:14:05.806Z,16.32
2019-04-25T04:16:31.157Z,16.33
2019-04-25T04:18:57.483Z,16.32
2019-04-25T04:21:23.792Z,16.32
2019-04-25T04:23:50.096Z,16.33
2019-04-25T04:26:16.431Z,16.35
2019-04-25T04:28:43.516Z,16.36
2019-04-25T04:31:09.095Z,16.36
2019-04-25T04:33:35.397Z,16.39
2019-04-25T04:36:01.725Z,16.40
2019-04-25T04:38:28.032Z,16.43
2019-04-25T04:40:55.132Z,16.46
2019-04-25T04:43:20.689Z,16.50
2019-04-25T04:45:46.993Z,16.54
2019-04-25T04:48:14.622Z,16.58
2019-04-25T04:50:39.632Z,16.59
2019-04-25T04:53:05.975Z,16.58
2019-04-25T04:55:32.297Z,16.57
2019-04-25T04:58:01.302Z,16.57
2019-04-25T05:00:24.948Z,16.58
2019-04-25T05:02:51.264Z,16.64
2019-04-25T05:05:17.580Z,16.56
2019-04-25T05:07:44.006Z,16.40
2019-04-25T05:10:10.591Z,16.25
2019-04-25T05:12:36.544Z,16.19
2019-04-25T05:15:03.785Z,16.22
2019-04-25T05:17:29.170Z,16.25
2019-04-25T05:19:55.500Z,16.26
2019-04-25T05:22:23.914Z,16.32
2019-04-25T05:24:48.155Z,16.37
2019-04-25T05:27:16.690Z,16.43
2019-04-25T05:29:40.775Z,16.49
2019-04-25T05:32:07.087Z,16.54
2019-04-25T05:34:35.925Z,16.59
2019-04-25T05:37:03.731Z,16.62
2019-04-25T05:39:28.535Z,16.69
2019-04-25T05:41:54.860Z,16.75
2019-04-25T05:44:21.161Z,16.79
2019-04-25T05:46:47.493Z,16.80
2019-04-25T05:49:13.897Z,16.81
2019-04-25T05:51:46.138Z,16.83
2019-04-25T05:54:13.978Z,16.86
2019-04-25T05:56:38.791Z,16.93
2019-04-25T05:59:05.523Z,16.97
2019-04-25T06:01:31.427Z,17.02
2019-04-25T06:03:57.758Z,17.09
2019-04-25T06:06:24.756Z,17.18
2019-04-25T06:08:50.391Z,17.26
2019-04-25T06:11:17.948Z,17.32
2019-04-25T06:13:43.441Z,17.34
2019-04-25T06:16:09.438Z,17.29
2019-04-25T06:18:35.745Z,17.34
2019-04-25T06:21:03.084Z,17.49
2019-04-25T06:23:28.949Z,17.67
2019-04-25T06:25:54.752Z,17.81
2019-04-25T06:28:21.735Z,17.93
2019-04-25T06:30:47.371Z,18.05
2019-04-25T06:33:13.695Z,18.16
2019-04-25T06:35:40.001Z,18.25
2019-04-25T06:38:06.321Z,18.33
2019-04-25T06:40:34.430Z,18.44
2019-04-25T06:42:59.017Z,18.52
2019-04-25T06:45:26.634Z,18.55
2019-04-25T06:47:51.661Z,18.58
2019-04-25T06:50:17.993Z,18.63
2019-04-25T06:52:44.359Z,18.56
2019-04-25T06:55:10.684Z,18.52
2019-04-25T06:57:36.989Z,18.61
2019-04-25T07:00:04.431Z,18.79
2019-04-25T07:02:29.692Z,19.05
2019-04-25T07:04:55.997Z,19.25
2019-04-25T07:07:25.257Z,19.40
2019-04-25T07:09:48.724Z,19.57
2019-04-25T07:12:15.047Z,19.63
2019-04-25T07:14:41.612Z,19.70
2019-04-25T07:17:09.197Z,19.80
2019-04-25T07:19:35.741Z,19.77
2019-04-25T07:22:03.915Z,19.83
2019-04-25T07:24:29.610Z,19.88
2019-04-25T07:26:56.382Z,19.98
2019-04-25T07:29:24.795Z,20.01
2019-04-25T07:31:49.010Z,19.90
2019-04-25T07:34:15.313Z,19.88
2019-04-25T07:36:41.664Z,20.03
2019-04-25T07:39:10.518Z,20.27
2019-04-25T07:41:36.825Z,20.49
2019-04-25T07:44:00.676Z,20.67
2019-04-25T07:46:27.733Z,20.81
2019-04-25T07:48:53.594Z,20.94
2019-04-25T07:51:19.623Z,21.04
2019-04-25T07:53:45.954Z,21.12
2019-04-25T07:56:12.261Z,21.22
2019-04-25T07:58:49.159Z,21.34
2019-04-25T08:01:04.903Z,21.41
2019-04-25T08:03:32.099Z,21.41
2019-04-25T08:05:57.570Z,21.55
2019-04-25T08:08:23.943Z,21.69
2019-04-25T08:10:50.249Z,21.78
2019-04-25T08:13:16.576Z,21.88
2019-04-25T08:15:43.700Z,21.99
2019-04-25T08:18:09.189Z,22.12
2019-04-25T08:20:35.927Z,22.19
2019-04-25T08:23:01.831Z,22.25
2019-04-25T08:25:28.479Z,22.35
2019-04-25T08:27:55.241Z,22.46
2019-04-25T08:30:20.854Z,22.56
2019-04-25T08:32:47.165Z,22.67
2019-04-25T08:35:14.000Z,22.73
2019-04-25T08:37:39.817Z,22.75
2019-04-25T08:40:06.121Z,22.76
2019-04-25T08:42:34.556Z,22.79
2019-04-25T08:44:58.760Z,22.90
2019-04-25T08:47:25.070Z,23.03
2019-04-25T08:49:51.467Z,23.15
2019-04-25T08:52:17.778Z,23.25
2019-04-25T08:54:47.241Z,23.34
2019-04-25T08:57:10.451Z,23.42
2019-04-25T08:59:42.376Z,23.51
2019-04-25T09:02:03.501Z,23.62
2019-04-25T09:04:29.431Z,23.74
2019-04-25T09:06:55.759Z,23.78
2019-04-25T09:09:23.555Z,23.71
2019-04-25T09:11:48.464Z,23.77
2019-04-25T09:14:14.796Z,23.85
2019-04-25T09:16:42.351Z,23.98
2019-04-25T09:19:07.439Z,24.06
2019-04-25T09:21:35.281Z,24.06
2019-04-25T09:24:00.067Z,24.04
2019-04-25T09:26:26.438Z,24.12
2019-04-25T09:28:53.643Z,24.25
2019-04-25T09:31:19.094Z,24.36
2019-04-25T09:33:46.647Z,24.45
2019-04-25T09:36:11.766Z,24.56
2019-04-25T09:38:38.841Z,24.63
2019-04-25T09:41:04.401Z,24.66
2019-04-25T09:43:30.703Z,24.74
2019-04-25T09:45:57.031Z,24.81
2019-04-25T09:48:23.358Z,24.89
2019-04-25T09:50:49.701Z,24.97
2019-04-25T09:53:23.196Z,24.94
2019-04-25T09:55:44.071Z,25.01
2019-04-25T09:58:08.661Z,25.05
2019-04-25T10:00:36.393Z,25.04
2019-04-25T10:03:01.295Z,25.10
2019-04-25T10:05:27.620Z,25.21
2019-04-25T10:07:53.958Z,25.32
2019-04-25T10:10:20.290Z,25.40
2019-04-25T10:12:47.442Z,25.44
2019-04-25T10:15:14.230Z,25.39
2019-04-25T10:17:39.329Z,25.38
2019-04-25T10:20:05.579Z,25.40
2019-04-25T10:22:31.927Z,25.56
2019-04-25T10:25:00.714Z,25.66
2019-04-25T10:27:24.561Z,25.72
2019-04-25T10:29:53.804Z,25.81
2019-04-25T10:32:17.186Z,25.84
2019-04-25T10:34:45.166Z,25.87
2019-04-25T10:37:09.842Z,25.87
2019-04-25T10:39:36.168Z,25.91
2019-04-25T10:42:03.584Z,25.97
2019-04-25T10:44:28.815Z,26.00
2019-04-25T10:46:55.115Z,26.08
2019-04-25T10:49:23.411Z,26.12
2019-04-25T10:51:47.994Z,26.15
2019-04-25T10:54:14.561Z,26.18
2019-04-25T10:56:41.523Z,26.23
2019-04-25T10:59:06.747Z,26.31
2019-04-25T11:01:33.910Z,26.32
2019-04-25T11:03:59.374Z,26.33
2019-04-25T11:06:25.704Z,26.28
2019-04-25T11:08:55.040Z,26.23
2019-04-25T11:11:18.341Z,26.18
2019-04-25T11:13:45.277Z,26.22
2019-04-25T11:16:11.020Z,26.27
2019-04-25T11:18:37.341Z,26.36
2019-04-25T11:21:05.760Z,26.46
2019-04-25T11:23:29.960Z,26.56
2019-04-25T11:25:56.444Z,26.63
2019-04-25T11:28:23.436Z,26.67
2019-04-25T11:30:49.079Z,26.58
2019-04-25T11:33:15.411Z,26.63
2019-04-25T11:35:41.718Z,26.70
2019-04-25T11:38:08.198Z,26.71
2019-04-25T11:40:34.654Z,26.76
2019-04-25T11:43:00.678Z,26.76
2019-04-25T11:45:26.985Z,26.75
2019-04-25T11:47:54.431Z,26.72
2019-04-25T11:50:19.620Z,26.74
2019-04-25T11:52:46.776Z,26.76
2019-04-25T11:55:12.329Z,26.73
2019-04-25T11:57:38.616Z,26.64
2019-04-25T12:00:04.965Z,26.57
2019-04-25T12:02:31.321Z,26.52
2019-04-25T12:04:57.661Z,26.41
2019-04-25T12:07:23.971Z,26.36
2019-04-25T12:09:50.299Z,26.24
2019-04-25T12:12:16.631Z,26.24
2019-04-25T12:14:44.188Z,26.23
2019-04-25T12:17:09.262Z,26.21
2019-04-25T12:19:37.921Z,26.23
2019-04-25T12:22:01.919Z,26.18
2019-04-25T12:24:28.229Z,26.14
2019-04-25T12:26:55.821Z,26.09
2019-04-25T12:29:20.856Z,26.05
2019-04-25T12:31:47.647Z,26.01
2019-04-25T12:34:14.147Z,26.00
2019-04-25T12:36:39.808Z,25.91
2019-04-25T12:39:07.174Z,25.91
2019-04-25T12:41:32.498Z,25.91
2019-04-25T12:43:58.805Z,25.91
2019-04-25T12:46:25.125Z,25.92
2019-04-25T12:48:51.686Z,25.91
2019-04-25T12:51:17.743Z,25.90
2019-04-25T12:53:44.098Z,25.85
2019-04-25T12:56:10.401Z,25.77
2019-04-25T12:58:36.730Z,25.78
2019-04-25T13:01:04.301Z,25.80
2019-04-25T13:03:29.360Z,25.76
2019-04-25T13:05:56.354Z,25.75
2019-04-25T13:08:22.036Z,25.68
2019-04-25T13:10:48.368Z,25.68
2019-04-25T13:13:15.400Z,25.71
2019-04-25T13:15:43.787Z,25.65
2019-04-25T13:18:07.334Z,25.65
2019-04-25T13:20:33.641Z,25.64
2019-04-25T13:23:00.575Z,25.64
2019-04-25T13:25:26.278Z,25.64
2019-04-25T13:27:52.610Z,25.61
2019-04-25T13:30:18.951Z,25.59
2019-04-25T13:32:45.251Z,25.56
2019-04-25T13:35:11.579Z,25.54
2019-04-25T13:37:37.951Z,25.53
2019-04-25T13:40:04.286Z,25.53
2019-04-25T13:42:30.585Z,25.54
2019-04-25T13:44:56.914Z,25.54
2019-04-25T13:47:27.565Z,25.49
2019-04-25T13:49:49.530Z,25.48
2019-04-25T13:52:17.720Z,25.48
2019-04-25T13:54:43.590Z,25.50
2019-04-25T13:57:08.493Z,25.49
2019-04-25T13:59:34.821Z,25.40
2019-04-25T14:02:01.137Z,25.37
2019-04-25T14:04:28.063Z,25.33
2019-04-25T14:06:53.806Z,25.33
2019-04-25T14:09:21.414Z,25.33
2019-04-25T14:11:46.443Z,25.32
2019-04-25T14:14:12.752Z,25.29
2019-04-25T14:16:39.083Z,25.24
2019-04-25T14:19:05.404Z,25.21
2019-04-25T14:21:33.421Z,25.19
2019-04-25T14:23:58.048Z,25.16
2019-04-25T14:26:25.022Z,25.13
2019-04-25T14:28:50.775Z,25.13
2019-04-25T14:31:30.558Z,25.10
2019-04-25T14:33:43.463Z,25.09
2019-04-25T14:36:09.765Z,25.05
2019-04-25T14:38:36.889Z,25.02
2019-04-25T14:41:02.407Z,24.99
2019-04-25T14:43:28.830Z,24.93
2019-04-25T14:45:56.257Z,24.94
2019-04-25T14:48:21.429Z,24.89
2019-04-25T14:50:47.837Z,24.81
2019-04-25T14:53:14.136Z,24.74
2019-04-25T14:55:40.457Z,24.68
2019-04-25T14:58:06.774Z,24.71
2019-04-25T15:00:33.104Z,24.69
2019-04-25T15:02:59.428Z,24.67
2019-04-25T15:05:25.754Z,24.66
2019-04-25T15:07:52.085Z,24.60
2019-04-25T15:10:18.390Z,24.51
2019-04-25T15:12:44.747Z,24.48
2019-04-25T15:15:11.055Z,24.44
2019-04-25T15:17:45.413Z,24.35
2019-04-25T15:20:03.706Z,24.26
2019-04-25T15:22:30.540Z,24.13
2019-04-25T15:24:56.369Z,23.94
2019-04-25T15:27:22.709Z,23.76
2019-04-25T15:29:49.033Z,23.62
2019-04-25T15:32:15.353Z,23.58
2019-04-25T15:34:41.661Z,23.54
2019-04-25T15:37:08.471Z,23.38
2019-04-25T15:39:35.232Z,23.34
2019-04-25T15:42:00.631Z,23.22
2019-04-25T15:44:26.936Z,23.20
2019-04-25T15:46:53.251Z,23.19
2019-04-25T15:49:19.605Z,23.32
2019-04-25T15:51:45.921Z,23.46
2019-04-25T15:54:12.262Z,23.57
2019-04-25T15:56:38.552Z,23.65
2019-04-25T15:59:04.879Z,23.64
2019-04-25T16:01:47.780Z,23.60
2019-04-25T16:04:03.215Z,23.28
2019-04-25T16:06:29.847Z,23.11
2019-04-25T16:08:56.016Z,22.95
2019-04-25T16:11:22.343Z,22.83
2019-04-25T16:13:48.652Z,22.63
2019-04-25T16:16:15.081Z,22.54
2019-04-25T16:18:41.390Z,22.34
2019-04-25T16:21:07.729Z,22.37
2019-04-25T16:23:34.354Z,22.32
2019-04-25T16:26:00.389Z,22.23
2019-04-25T16:28:27.572Z,22.20
2019-04-25T16:30:53.036Z,22.23
2019-04-25T16:33:19.388Z,22.17
2019-04-25T16:35:45.721Z,22.13
2019-04-25T16:38:17.145Z,22.02
2019-04-25T16:40:42.306Z,21.98
2019-04-25T16:43:26.083Z,21.92
2019-04-25T16:45:38.048Z,21.94
2019-04-25T16:48:11.533Z,22.05
2019-04-25T16:50:31.654Z,22.01
2019-04-25T16:52:57.787Z,21.97
2019-04-25T16:55:24.093Z,21.96
2019-04-25T16:57:50.549Z,21.99
2019-04-25T17:00:16.911Z,21.97
2019-04-25T17:02:43.426Z,21.96
2019-04-25T17:05:09.804Z,21.96
2019-04-25T17:07:38.401Z,21.96
2019-04-25T17:10:02.906Z,21.91
2019-04-25T17:12:29.693Z,21.87
2019-04-25T17:14:55.605Z,21.86
2019-04-25T17:17:22.045Z,21.83
2019-04-25T17:19:48.414Z,21.83
2019-04-25T17:22:14.765Z,21.77
2019-04-25T17:24:41.269Z,21.69
2019-04-25T17:27:07.508Z,21.59
2019-04-25T17:29:34.554Z,21.58
2019-04-25T17:32:00.115Z,21.57
2019-04-25T17:34:26.420Z,21.48
2019-04-25T17:36:52.761Z,21.47
2019-04-25T17:39:19.067Z,21.46
2019-04-25T17:41:45.657Z,21.36
2019-04-25T17:44:12.018Z,21.45
2019-04-25T17:46:38.332Z,21.42
2019-04-25T17:49:04.664Z,21.40
2019-04-25T17:51:30.982Z,21.32
2019-04-25T17:53:57.302Z,21.25
2019-04-25T17:56:23.632Z,21.22
2019-04-25T17:58:49.943Z,21.16
2019-04-25T18:01:16.281Z,21.14
2019-04-25T18:03:42.626Z,21.15
2019-04-25T18:06:08.935Z,21.24
2019-04-25T18:08:35.598Z,21.39
2019-04-25T18:11:01.636Z,21.46
2019-04-25T18:13:28.060Z,21.51
2019-04-25T18:15:54.357Z,21.55
2019-04-25T18:18:20.696Z,21.55
2019-04-25T18:20:47.015Z,21.54
2019-04-25T18:23:13.350Z,21.56
2019-04-25T18:25:39.719Z,21.52
2019-04-25T18:28:06.034Z,21.56
2019-04-25T18:30:32.367Z,21.57
2019-04-25T18:33:09.913Z,21.57
2019-04-25T18:35:25.013Z,21.56
2019-04-25T18:37:51.366Z,21.56
2019-04-25T18:40:17.678Z,21.55
2019-04-25T18:42:44.188Z,21.55
2019-04-25T18:45:10.336Z,21.55
2019-04-25T18:47:36.951Z,21.53
2019-04-25T18:50:03.168Z,21.50
2019-04-25T18:52:29.551Z,21.51
2019-04-25T18:54:55.892Z,21.50
2019-04-25T18:57:22.240Z,21.50
2019-04-25T18:59:48.612Z,21.43
2019-04-25T19:02:14.951Z,21.46
2019-04-25T19:04:41.813Z,21.44
2019-04-25T19:07:07.700Z,21.42
2019-04-25T19:09:34.004Z,21.39
2019-04-25T19:12:00.344Z,21.35
2019-04-25T19:14:27.264Z,21.32
2019-04-25T19:16:52.983Z,21.30
2019-04-25T19:19:19.310Z,21.27
2019-04-25T19:21:45.648Z,21.25
2019-04-25T19:24:11.957Z,21.24
2019-04-25T19:26:40.739Z,21.21
2019-04-25T19:29:04.612Z,21.20
2019-04-25T19:31:30.943Z,21.16
2019-04-25T19:33:57.258Z,21.14
2019-04-25T19:36:23.593Z,21.10
2019-04-25T19:38:49.896Z,21.07
2019-04-25T19:41:16.499Z,21.05
2019-04-25T19:43:42.827Z,21.06
2019-04-25T19:46:09.136Z,21.04
2019-04-25T19:48:35.492Z,21.01
2019-04-25T19:51:01.812Z,20.98
2019-04-25T19:53:28.267Z,20.98
2019-04-25T19:55:54.576Z,20.95
2019-04-25T19:58:20.912Z,20.92
2019-04-25T20:00:47.302Z,20.91
2019-04-25T20:03:13.605Z,20.88
2019-04-25T20:05:39.944Z,20.85
2019-04-25T20:08:06.276Z,20.81
2019-04-25T20:10:32.609Z,20.80
2019-04-25T20:12:58.938Z,20.77
2019-04-25T20:15:25.695Z,20.76
2019-04-25T20:17:52.108Z,20.73
2019-04-25T20:20:18.376Z,20.70
2019-04-25T20:22:44.908Z,20.68
2019-04-25T20:25:11.021Z,20.68
2019-04-25T20:27:38.396Z,20.67
2019-04-25T20:30:03.671Z,20.62
2019-04-25T20:32:29.988Z,20.60
2019-04-25T20:34:56.325Z,20.57
2019-04-25T20:37:22.812Z,20.58
2019-04-25T20:39:49.445Z,20.57
2019-04-25T20:42:15.595Z,20.54
2019-04-25T20:44:41.900Z,20.52
2019-04-25T20:47:08.231Z,20.50
2019-04-25T20:49:34.539Z,20.47
2019-04-25T20:52:00.861Z,20.47
2019-04-25T20:54:27.198Z,20.41
2019-04-25T20:56:53.531Z,20.42
2019-04-25T20:59:19.873Z,20.41
2019-04-25T21:01:47.184Z,20.40
2019-04-25T21:04:13.347Z,20.38
2019-04-25T21:06:38.823Z,20.35
2019-04-25T21:09:05.144Z,20.34
2019-04-25T21:11:31.470Z,20.33
2019-04-25T21:13:57.805Z,20.31
2019-04-25T21:16:24.136Z,20.29
2019-04-25T21:18:50.987Z,20.26
2019-04-25T21:21:16.779Z,20.27
2019-04-25T21:23:43.434Z,20.24
2019-04-25T21:26:09.769Z,20.22
2019-04-25T21:28:36.132Z,20.20
2019-04-25T21:31:03.372Z,20.18
2019-04-25T21:33:28.805Z,20.16
2019-04-25T21:35:55.524Z,20.15
2019-04-25T21:38:21.472Z,20.13
2019-04-25T21:40:47.810Z,20.13
2019-04-25T21:43:14.171Z,20.12
2019-04-25T21:45:40.487Z,20.08
2019-04-25T21:48:06.816Z,20.06
2019-04-25T21:50:33.142Z,20.05
2019-04-25T21:52:59.453Z,20.02
2019-04-25T21:55:25.818Z,20.01
2019-04-25T21:57:52.160Z,19.99
2019-04-25T22:00:18.489Z,19.98
2019-04-25T22:02:44.837Z,19.98
2019-04-25T22:05:11.155Z,19.96
2019-04-25T22:07:37.487Z,19.93
2019-04-25T22:10:03.980Z,19.90
2019-04-25T22:12:30.218Z,19.90
2019-04-25T22:14:57.146Z,19.89
2019-04-25T22:17:22.860Z,19.86
2019-04-25T22:19:49.232Z,19.84
2019-04-25T22:22:15.538Z,19.85
2019-04-25T22:24:41.885Z,19.84
2019-04-25T22:27:08.206Z,19.82
2019-04-25T22:29:34.547Z,19.82
2019-04-25T22:32:03.171Z,19.78
2019-04-25T22:34:29.435Z,19.75
2019-04-25T22:36:55.777Z,19.73
2019-04-25T22:39:22.142Z,19.70
2019-04-25T22:41:49.609Z,19.71
2019-04-25T22:44:14.772Z,19.70
2019-04-25T22:46:41.116Z,19.67
2019-04-25T22:49:07.685Z,19.66
2019-04-25T22:51:33.889Z,19.66
2019-04-25T22:54:00.997Z,19.65
2019-04-25T22:56:26.559Z,19.63
2019-04-25T22:58:52.929Z,19.63
2019-04-25T23:01:19.223Z,19.61
2019-04-25T23:03:45.549Z,19.59
2019-04-25T23:06:11.890Z,19.56
2019-04-25T23:08:38.235Z,19.56
2019-04-25T23:11:04.576Z,19.53
2019-04-25T23:13:30.893Z,19.52
2019-04-25T23:15:57.212Z,19.50
2019-04-25T23:18:23.546Z,19.47
2019-04-25T23:20:49.874Z,19.45
2019-04-25T23:23:16.224Z,19.46
2019-04-25T23:25:42.542Z,19.45
2019-04-25T23:28:09.738Z,19.44
2019-04-25T23:30:35.222Z,19.42
2019-04-25T23:33:01.644Z,19.40
2019-04-25T23:35:33.114Z,19.39
2019-04-25T23:37:54.264Z,19.38
2019-04-25T23:40:20.600Z,19.37
2019-04-25T23:42:46.919Z,19.36
2019-04-25T23:45:13.229Z,19.33
2019-04-25T23:47:39.591Z,19.33
2019-04-25T23:50:07.043Z,19.31
2019-04-25T23:52:32.282Z,19.30
2019-04-25T23:54:58.582Z,19.28
2019-04-25T23:57:24.892Z,19.28
2019-04-25T23:59:51.227Z,19.27
